createdAt,value
2023-10-23T00:01:03.035Z,1000.4
2023-10-23T00:02:19.355Z,1000.4
2023-10-23T00:03:35.615Z,1000.4
2023-10-23T00:04:51.917Z,1000.4
2023-10-23T00:06:08.235Z,1000.3
2023-10-23T00:07:24.500Z,1000.4
2023-10-23T00:08:40.788Z,1000.3
2023-10-23T00:09:57.093Z,1000.4
2023-10-23T00:11:13.379Z,1000.3
2023-10-23T00:12:29.674Z,1000.3
2023-10-23T00:13:46.001Z,1000.3
2023-10-23T00:15:02.268Z,1000.3
2023-10-23T00:16:18.707Z,1000.3
2023-10-23T00:17:35.003Z,1000.4
2023-10-23T00:18:51.259Z,1000.3
2023-10-23T00:20:07.600Z,1000.4
2023-10-23T00:21:23.848Z,1000.4
2023-10-23T00:22:40.145Z,1000.4
2023-10-23T00:23:56.486Z,1000.4
2023-10-23T00:25:12.726Z,1000.4
2023-10-23T00:26:29.017Z,1000.4
2023-10-23T00:27:45.313Z,1000.4
2023-10-23T00:29:01.615Z,1000.4
2023-10-23T00:30:17.937Z,1000.4
2023-10-23T00:31:34.204Z,1000.4
2023-10-23T00:32:49.508Z,1000.4
2023-10-23T00:34:05.835Z,1000.4
2023-10-23T00:35:22.092Z,1000.4
2023-10-23T00:36:38.429Z,1000.4
2023-10-23T00:37:54.696Z,1000.4
2023-10-23T00:39:10.969Z,1000.4
2023-10-23T00:40:27.275Z,1000.4
2023-10-23T00:41:43.600Z,1000.5
2023-10-23T00:42:59.896Z,1000.5
2023-10-23T00:44:16.146Z,1000.5
2023-10-23T00:45:32.458Z,1000.5
2023-10-23T00:46:48.738Z,1000.5
2023-10-23T00:48:05.037Z,1000.5
2023-10-23T00:49:20.378Z,1000.5
2023-10-23T00:50:36.673Z,1000.5
2023-10-23T00:51:52.965Z,1000.5
2023-10-23T00:53:09.276Z,1000.5
2023-10-23T00:54:25.518Z,1000.5
2023-10-23T00:55:41.848Z,1000.5
2023-10-23T00:56:58.145Z,1000.5
2023-10-23T00:58:14.404Z,1000.5
2023-10-23T00:59:30.700Z,1000.5
2023-10-23T01:00:46.997Z,1000.6
2023-10-23T01:02:03.317Z,1000.6
2023-10-23T01:03:19.583Z,1000.6
2023-10-23T01:04:35.898Z,1000.6
2023-10-23T01:05:51.221Z,1000.6
2023-10-23T01:07:07.463Z,1000.6
2023-10-23T01:08:23.757Z,1000.5
2023-10-23T01:09:40.055Z,1000.6
2023-10-23T01:10:56.361Z,1000.6
2023-10-23T01:12:12.639Z,1000.6
2023-10-23T01:13:28.973Z,1000.6
2023-10-23T01:14:45.230Z,1000.6
2023-10-23T01:16:01.516Z,1000.6
2023-10-23T01:17:17.811Z,1000.5
2023-10-23T01:18:34.153Z,1000.5
2023-10-23T01:19:50.396Z,1000.5
2023-10-23T01:21:06.737Z,1000.5
2023-10-23T01:22:22.007Z,1000.5
2023-10-23T01:23:38.293Z,1000.5
2023-10-23T01:24:54.628Z,1000.5
2023-10-23T01:26:10.925Z,1000.5
2023-10-23T01:27:27.174Z,1000.5
2023-10-23T01:28:43.473Z,1000.5
2023-10-23T01:29:59.811Z,1000.6
2023-10-23T01:31:16.060Z,1000.6
2023-10-23T01:32:32.352Z,1000.6
2023-10-23T01:33:48.694Z,1000.6
2023-10-23T01:35:04.994Z,1000.7
2023-10-23T01:36:21.273Z,1000.6
2023-10-23T01:37:37.570Z,1000.7
2023-10-23T01:38:52.844Z,1000.6
2023-10-23T01:40:09.132Z,1000.7
2023-10-23T01:41:25.424Z,1000.7
2023-10-23T01:42:41.727Z,1000.7
2023-10-23T01:43:58.055Z,1000.6
2023-10-23T01:45:14.315Z,1000.7
2023-10-23T01:46:30.604Z,1000.7
2023-10-23T01:47:46.902Z,1000.7
2023-10-23T01:49:03.187Z,1000.7
2023-10-23T01:50:19.523Z,1000.7
2023-10-23T01:51:35.771Z,1000.7
2023-10-23T01:52:52.114Z,1000.7
2023-10-23T01:54:08.403Z,1000.7
2023-10-23T01:55:23.717Z,1000.7
2023-10-23T01:56:39.976Z,1000.8
2023-10-23T01:57:56.296Z,1000.7
2023-10-23T01:59:12.595Z,1000.7
2023-10-23T02:00:28.836Z,1000.7
2023-10-23T02:01:45.145Z,1000.7
2023-10-23T02:03:01.464Z,1000.7
2023-10-23T02:04:17.769Z,1000.8
2023-10-23T02:05:34.068Z,1000.8
2023-10-23T02:06:50.357Z,1000.8
2023-10-23T02:08:06.649Z,1000.8
2023-10-23T02:09:22.894Z,1000.8
2023-10-23T02:10:39.188Z,1000.8
2023-10-23T02:11:54.499Z,1000.8
2023-10-23T02:13:10.790Z,1000.8
2023-10-23T02:14:27.122Z,1000.8
2023-10-23T02:15:43.424Z,1000.9
2023-10-23T02:16:59.707Z,1000.9
2023-10-23T02:18:15.959Z,1000.9
2023-10-23T02:19:32.307Z,1000.9
2023-10-23T02:20:48.547Z,1000.9
2023-10-23T02:22:04.886Z,1000.9
2023-10-23T02:23:21.185Z,1000.9
2023-10-23T02:24:37.438Z,1000.9
2023-10-23T02:25:53.764Z,1000.9
2023-10-23T02:27:10.059Z,1000.9
2023-10-23T02:28:25.327Z,1000.9
2023-10-23T02:29:41.615Z,1000.9
2023-10-23T02:30:57.909Z,1000.9
2023-10-23T02:32:14.204Z,1001
2023-10-23T02:33:30.550Z,1001
2023-10-23T02:34:46.793Z,1001
2023-10-23T02:36:03.095Z,1001
2023-10-23T02:37:19.423Z,1001
2023-10-23T02:38:35.678Z,1001
2023-10-23T02:39:52.004Z,1001.1
2023-10-23T02:41:08.299Z,1001
2023-10-23T02:42:24.602Z,1001.1
2023-10-23T02:43:40.849Z,1001.1
2023-10-23T02:44:56.205Z,1001.1
2023-10-23T02:46:12.502Z,1001.1
2023-10-23T02:47:28.750Z,1001.1
2023-10-23T02:48:45.039Z,1001.2
2023-10-23T02:50:01.383Z,1001.1
2023-10-23T02:51:17.625Z,1001.1
2023-10-23T02:52:33.913Z,1001.1
2023-10-23T02:53:50.204Z,1001.1
2023-10-23T02:55:06.538Z,1001.2
2023-10-23T02:56:22.795Z,1001.1
2023-10-23T02:57:39.095Z,1001.2
2023-10-23T02:58:55.383Z,1001.2
2023-10-23T03:00:11.716Z,1001.2
2023-10-23T03:01:26.983Z,1001.2
2023-10-23T03:02:43.271Z,1001.2
2023-10-23T03:03:59.616Z,1001.2
2023-10-23T03:05:15.863Z,1001.2
2023-10-23T03:06:32.203Z,1001.2
2023-10-23T03:07:48.486Z,1001.2
2023-10-23T03:09:03.755Z,1001.3
2023-10-23T03:10:20.092Z,1001.3
2023-10-23T03:11:36.358Z,1001.3
2023-10-23T03:12:52.635Z,1001.3
2023-10-23T03:14:08.933Z,1001.3
2023-10-23T03:15:25.280Z,1001.2
2023-10-23T03:16:41.529Z,1001.3
2023-10-23T03:17:57.813Z,1001.3
2023-10-23T03:19:14.159Z,1001.2
2023-10-23T03:20:30.440Z,1001.3
2023-10-23T03:21:46.687Z,1001.3
2023-10-23T03:23:02.986Z,1001.3
2023-10-23T03:24:19.273Z,1001.3
2023-10-23T03:25:34.628Z,1001.3
2023-10-23T03:26:50.873Z,1001.3
2023-10-23T03:28:07.210Z,1001.4
2023-10-23T03:29:23.461Z,1001.4
2023-10-23T03:30:39.758Z,1001.4
2023-10-23T03:31:56.096Z,1001.4
2023-10-23T03:33:12.395Z,1001.4
2023-10-23T03:34:28.696Z,1001.4
2023-10-23T03:35:44.929Z,1001.4
2023-10-23T03:37:01.231Z,1001.4
2023-10-23T03:38:17.516Z,1001.4
2023-10-23T03:39:33.853Z,1001.4
2023-10-23T03:40:50.151Z,1001.4
2023-10-23T03:42:05.411Z,1001.4
2023-10-23T03:43:21.702Z,1001.4
2023-10-23T03:44:37.996Z,1001.5
2023-10-23T03:45:54.337Z,1001.5
2023-10-23T03:47:10.636Z,1001.5
2023-10-23T03:48:26.887Z,1001.5
2023-10-23T03:49:43.166Z,1001.5
2023-10-23T03:50:59.507Z,1001.5
2023-10-23T03:52:15.807Z,1001.5
2023-10-23T03:53:32.100Z,1001.5
2023-10-23T03:54:48.347Z,1001.5
2023-10-23T03:56:04.640Z,1001.5
2023-10-23T03:57:20.926Z,1001.5
2023-10-23T03:58:36.232Z,1001.5
2023-10-23T03:59:52.525Z,1001.4
2023-10-23T04:01:08.822Z,1001.4
2023-10-23T04:02:25.117Z,1001.5
2023-10-23T04:03:41.450Z,1001.4
2023-10-23T04:04:57.752Z,1001.4
2023-10-23T04:06:14.046Z,1001.4
2023-10-23T04:07:30.336Z,1001.5
2023-10-23T04:08:46.633Z,1001.5
2023-10-23T04:10:02.877Z,1001.5
2023-10-23T04:11:19.170Z,1001.4
2023-10-23T04:12:35.463Z,1001.5
2023-10-23T04:13:51.759Z,1001.5
2023-10-23T04:15:07.062Z,1001.6
2023-10-23T04:16:23.403Z,1001.5
2023-10-23T04:17:39.644Z,1001.6
2023-10-23T04:18:55.957Z,1001.6
2023-10-23T04:20:12.239Z,1001.6
2023-10-23T04:21:28.534Z,1001.6
2023-10-23T04:22:44.869Z,1001.6
2023-10-23T04:24:01.171Z,1001.6
2023-10-23T04:25:17.451Z,1001.6
2023-10-23T04:26:33.718Z,1001.6
2023-10-23T04:27:50.039Z,1001.5
2023-10-23T04:29:06.297Z,1001.5
2023-10-23T04:30:22.584Z,1001.5
2023-10-23T04:31:37.945Z,1001.6
2023-10-23T04:32:54.236Z,1001.5
2023-10-23T04:34:10.529Z,1001.5
2023-10-23T04:35:26.773Z,1001.5
2023-10-23T04:36:43.118Z,1001.6
2023-10-23T04:37:59.360Z,1001.6
2023-10-23T04:39:15.707Z,1001.5
2023-10-23T04:40:31.999Z,1001.5
2023-10-23T04:41:48.243Z,1001.6
2023-10-23T04:43:04.546Z,1001.6
2023-10-23T04:44:20.889Z,1001.6
2023-10-23T04:45:37.127Z,1001.6
2023-10-23T04:46:53.428Z,1001.6
2023-10-23T04:48:08.724Z,1001.6
2023-10-23T04:49:25.076Z,1001.6
2023-10-23T04:50:41.307Z,1001.6
2023-10-23T04:51:57.602Z,1001.7
2023-10-23T04:53:13.902Z,1001.7
2023-10-23T04:54:30.252Z,1001.6
2023-10-23T04:55:46.541Z,1001.7
2023-10-23T04:57:02.780Z,1001.7
2023-10-23T04:58:19.069Z,1001.7
2023-10-23T04:59:35.414Z,1001.7
2023-10-23T05:00:51.717Z,1001.7
2023-10-23T05:02:07.952Z,1001.7
2023-10-23T05:03:24.262Z,1001.7
2023-10-23T05:04:39.568Z,1001.7
2023-10-23T05:05:55.855Z,1001.7
2023-10-23T05:07:12.142Z,1001.7
2023-10-23T05:08:28.433Z,1001.7
2023-10-23T05:09:44.786Z,1001.7
2023-10-23T05:11:01.028Z,1001.7
2023-10-23T05:12:17.330Z,1001.7
2023-10-23T05:13:33.615Z,1001.7
2023-10-23T05:14:49.946Z,1001.7
2023-10-23T05:16:06.250Z,1001.7
2023-10-23T05:17:22.490Z,1001.7
2023-10-23T05:18:38.787Z,1001.7
2023-10-23T05:19:55.121Z,1001.7
2023-10-23T05:21:11.484Z,1001.7
2023-10-23T05:22:27.786Z,1001.7
2023-10-23T05:23:44.067Z,1001.7
2023-10-23T05:25:00.280Z,1001.7
2023-10-23T05:26:16.509Z,1001.8
2023-10-23T05:27:32.808Z,1001.8
2023-10-23T05:28:49.056Z,1001.9
2023-10-23T05:30:05.292Z,1001.9
2023-10-23T05:31:21.608Z,1001.9
2023-10-23T05:32:37.794Z,1001.9
2023-10-23T05:33:54.031Z,1002
2023-10-23T05:35:10.276Z,1002
2023-10-23T05:36:26.518Z,1002
2023-10-23T05:37:41.815Z,1002
2023-10-23T05:38:58.015Z,1002
2023-10-23T05:40:14.296Z,1002
2023-10-23T05:41:30.493Z,1002
2023-10-23T05:42:46.776Z,1002
2023-10-23T05:44:03.013Z,1002
2023-10-23T05:45:19.263Z,1002
2023-10-23T05:46:35.439Z,1002.1
2023-10-23T05:47:51.683Z,1002.1
2023-10-23T05:49:07.975Z,1002
2023-10-23T05:50:24.207Z,1002
2023-10-23T05:51:40.401Z,1002
2023-10-23T05:52:56.632Z,1002
2023-10-23T05:54:11.941Z,1002.1
2023-10-23T05:55:28.127Z,1002
2023-10-23T05:56:44.370Z,1002.1
2023-10-23T05:58:00.656Z,1002.1
2023-10-23T05:59:16.892Z,1002.1
2023-10-23T06:00:33.130Z,1002.2
2023-10-23T06:01:49.370Z,1002.1
2023-10-23T06:03:05.565Z,1002.1
2023-10-23T06:04:21.847Z,1002.1
2023-10-23T06:05:38.051Z,1002.1
2023-10-23T06:06:54.325Z,1002.2
2023-10-23T06:08:10.518Z,1002.1
2023-10-23T06:09:26.762Z,1002.2
2023-10-23T06:10:42.064Z,1002.2
2023-10-23T06:11:58.249Z,1002.2
2023-10-23T06:13:14.484Z,1002.2
2023-10-23T06:14:30.721Z,1002.2
2023-10-23T06:15:46.962Z,1002.1
2023-10-23T06:17:03.206Z,1002.2
2023-10-23T06:18:19.497Z,1002.2
2023-10-23T06:19:35.681Z,1002.2
2023-10-23T06:20:51.000Z,1002.2
2023-10-23T06:22:08.226Z,1002.3
2023-10-23T06:23:24.404Z,1002.3
2023-10-23T06:24:40.688Z,1002.3
2023-10-23T06:25:56.878Z,1002.3
2023-10-23T06:27:12.197Z,1002.3
2023-10-23T06:28:28.371Z,1002.3
2023-10-23T06:29:44.618Z,1002.3
2023-10-23T06:31:00.855Z,1002.4
2023-10-23T06:32:17.086Z,1002.3
2023-10-23T06:33:33.330Z,1002.3
2023-10-23T06:34:49.621Z,1002.3
2023-10-23T06:36:05.863Z,1002.3
2023-10-23T06:37:22.043Z,1002.3
2023-10-23T06:38:38.335Z,1002.2
2023-10-23T06:39:54.578Z,1002.3
2023-10-23T06:41:10.765Z,1002.3
2023-10-23T06:42:27.011Z,1002.3
2023-10-23T06:43:42.310Z,1002.3
2023-10-23T06:44:58.555Z,1002.3
2023-10-23T06:46:14.732Z,1002.3
2023-10-23T06:47:31.021Z,1002.3
2023-10-23T06:48:47.260Z,1002.3
2023-10-23T06:50:03.513Z,1002.3
2023-10-23T06:51:19.686Z,1002.3
2023-10-23T06:52:35.982Z,1002.3
2023-10-23T06:53:52.169Z,1002.3
2023-10-23T06:55:08.458Z,1002.4
2023-10-23T06:56:24.701Z,1002.3
2023-10-23T06:57:40.933Z,1002.3
2023-10-23T06:58:57.122Z,1002.3
2023-10-23T07:00:12.378Z,1002.3
2023-10-23T07:01:28.677Z,1002.3
2023-10-23T07:02:44.869Z,1002.3
2023-10-23T07:04:01.151Z,1002.3
2023-10-23T07:05:17.392Z,1002.3
2023-10-23T07:06:33.574Z,1002.3
2023-10-23T07:07:49.811Z,1002.3
2023-10-23T07:09:06.099Z,1002.3
2023-10-23T07:10:22.291Z,1002.3
2023-10-23T07:11:38.536Z,1002.3
2023-10-23T07:12:54.818Z,1002.3
2023-10-23T07:14:11.003Z,1002.3
2023-10-23T07:15:27.251Z,1002.3
2023-10-23T07:16:42.498Z,1002.3
2023-10-23T07:17:58.744Z,1002.4
2023-10-23T07:19:15.040Z,1002.3
2023-10-23T07:20:31.213Z,1002.3
2023-10-23T07:21:47.471Z,1002.4
2023-10-23T07:23:03.702Z,1002.3
2023-10-23T07:24:19.013Z,1002.3
2023-10-23T07:25:35.196Z,1002.3
2023-10-23T07:26:51.492Z,1002.3
2023-10-23T07:28:07.680Z,1002.4
2023-10-23T07:29:23.926Z,1002.5
2023-10-23T07:30:40.147Z,1002.4
2023-10-23T07:31:56.404Z,1002.5
2023-10-23T07:33:12.625Z,1002.4
2023-10-23T07:34:28.879Z,1002.4
2023-10-23T07:35:45.108Z,1002.4
2023-10-23T07:37:01.345Z,1002.4
2023-10-23T07:38:17.596Z,1002.4
2023-10-23T07:39:33.825Z,1002.4
2023-10-23T07:40:49.101Z,1002.4
2023-10-23T07:42:05.318Z,1002.4
2023-10-23T07:43:21.566Z,1002.4
2023-10-23T07:44:37.793Z,1002.4
2023-10-23T07:45:54.032Z,1002.4
2023-10-23T07:47:10.285Z,1002.3
2023-10-23T07:48:26.525Z,1002.4
2023-10-23T07:49:42.744Z,1002.4
2023-10-23T07:50:58.999Z,1002.4
2023-10-23T07:52:15.221Z,1002.4
2023-10-23T07:53:31.491Z,1002.4
2023-10-23T07:54:47.714Z,1002.4
2023-10-23T07:56:03.967Z,1002.5
2023-10-23T07:57:19.216Z,1002.5
2023-10-23T07:58:35.455Z,1002.6
2023-10-23T07:59:51.698Z,1002.5
2023-10-23T08:01:07.926Z,1002.5
2023-10-23T08:02:24.166Z,1002.4
2023-10-23T08:03:40.405Z,1002.5
2023-10-23T08:04:56.644Z,1002.5
2023-10-23T08:06:12.888Z,1002.5
2023-10-23T08:07:29.126Z,1002.5
2023-10-23T08:08:45.356Z,1002.5
2023-10-23T08:10:01.592Z,1002.5
2023-10-23T08:11:17.832Z,1002.5
2023-10-23T08:12:34.071Z,1002.5
2023-10-23T08:13:50.434Z,1002.5
2023-10-23T08:15:06.670Z,1002.6
2023-10-23T08:16:22.908Z,1002.5
2023-10-23T08:17:39.157Z,1002.6
2023-10-23T08:18:55.401Z,1002.6
2023-10-23T08:20:11.627Z,1002.6
2023-10-23T08:21:27.875Z,1002.6
2023-10-23T08:22:44.101Z,1002.6
2023-10-23T08:24:00.342Z,1002.6
2023-10-23T08:25:16.584Z,1002.6
2023-10-23T08:26:32.836Z,1002.6
2023-10-23T08:27:49.068Z,1002.6
2023-10-23T08:29:05.302Z,1002.6
2023-10-23T08:30:20.551Z,1002.6
2023-10-23T08:31:36.795Z,1002.6
2023-10-23T08:32:53.038Z,1002.6
2023-10-23T08:34:09.273Z,1002.6
2023-10-23T08:35:25.504Z,1002.6
2023-10-23T08:36:41.751Z,1002.6
2023-10-23T08:37:57.988Z,1002.6
2023-10-23T08:39:14.220Z,1002.6
2023-10-23T08:40:30.466Z,1002.5
2023-10-23T08:41:46.696Z,1002.5
2023-10-23T08:43:02.945Z,1002.5
2023-10-23T08:44:19.180Z,1002.6
2023-10-23T08:45:35.428Z,1002.6
2023-10-23T08:46:50.675Z,1002.6
2023-10-23T08:48:06.917Z,1002.6
2023-10-23T08:49:23.150Z,1002.6
2023-10-23T08:50:39.380Z,1002.5
2023-10-23T08:51:55.618Z,1002.5
2023-10-23T08:53:11.862Z,1002.5
2023-10-23T08:54:28.100Z,1002.5
2023-10-23T08:55:44.348Z,1002.5
2023-10-23T08:57:00.570Z,1002.6
2023-10-23T08:58:16.810Z,1002.5
2023-10-23T08:59:33.050Z,1002.5
2023-10-23T09:00:49.288Z,1002.5
2023-10-23T09:02:05.530Z,1002.5
2023-10-23T09:03:20.781Z,1002.5
2023-10-23T09:04:37.017Z,1002.5
2023-10-23T09:05:53.258Z,1002.5
2023-10-23T09:07:09.511Z,1002.5
2023-10-23T09:08:25.733Z,1002.5
2023-10-23T09:09:41.984Z,1002.5
2023-10-23T09:10:58.230Z,1002.6
2023-10-23T09:12:14.449Z,1002.5
2023-10-23T09:13:30.689Z,1002.5
2023-10-23T09:14:46.936Z,1002.6
2023-10-23T09:16:03.163Z,1002.5
2023-10-23T09:17:19.415Z,1002.5
2023-10-23T09:18:35.653Z,1002.5
2023-10-23T09:19:50.905Z,1002.5
2023-10-23T09:21:07.140Z,1002.5
2023-10-23T09:22:23.374Z,1002.5
2023-10-23T09:23:39.623Z,1002.5
2023-10-23T09:24:55.861Z,1002.4
2023-10-23T09:26:12.097Z,1002.5
2023-10-23T09:27:28.342Z,1002.4
2023-10-23T09:28:44.567Z,1002.4
2023-10-23T09:30:00.805Z,1002.4
2023-10-23T09:31:17.041Z,1002.4
2023-10-23T09:32:33.296Z,1002.4
2023-10-23T09:33:49.517Z,1002.4
2023-10-23T09:35:05.765Z,1002.5
2023-10-23T09:36:21.018Z,1002.4
2023-10-23T09:37:37.257Z,1002.4
2023-10-23T09:38:53.488Z,1002.4
2023-10-23T09:40:09.728Z,1002.4
2023-10-23T09:41:25.970Z,1002.4
2023-10-23T09:42:42.208Z,1002.5
2023-10-23T09:43:58.443Z,1002.4
2023-10-23T09:45:14.687Z,1002.4
2023-10-23T09:46:30.920Z,1002.5
2023-10-23T09:47:47.162Z,1002.5
2023-10-23T09:49:03.404Z,1002.5
2023-10-23T09:50:19.650Z,1002.4
2023-10-23T09:51:35.875Z,1002.4
2023-10-23T09:52:51.132Z,1002.4
2023-10-23T09:54:07.369Z,1002.4
2023-10-23T09:55:23.608Z,1002.4
2023-10-23T09:56:39.849Z,1002.3
2023-10-23T09:57:56.096Z,1002.3
2023-10-23T09:59:12.333Z,1002.3
2023-10-23T10:00:28.587Z,1002.3
2023-10-23T10:01:44.806Z,1002.3
2023-10-23T10:03:01.047Z,1002.3
2023-10-23T10:04:17.289Z,1002.3
2023-10-23T10:05:33.534Z,1002.3
2023-10-23T10:06:49.769Z,1002.3
2023-10-23T10:08:06.013Z,1002.2
2023-10-23T10:09:21.265Z,1002.2
2023-10-23T10:10:37.507Z,1002.2
2023-10-23T10:11:53.760Z,1002.1
2023-10-23T10:13:09.997Z,1002.2
2023-10-23T10:14:26.220Z,1002.2
2023-10-23T10:15:42.463Z,1002.1
2023-10-23T10:16:58.713Z,1002.1
2023-10-23T10:18:14.945Z,1002.1
2023-10-23T10:19:31.184Z,1002.1
2023-10-23T10:20:47.435Z,1002.1
2023-10-23T10:22:03.678Z,1002.1
2023-10-23T10:23:19.903Z,1002.1
2023-10-23T10:24:36.141Z,1002.1
2023-10-23T10:25:51.397Z,1002.1
2023-10-23T10:27:07.635Z,1002.1
2023-10-23T10:28:23.878Z,1002
2023-10-23T10:29:40.109Z,1002
2023-10-23T10:30:56.350Z,1002
2023-10-23T10:32:12.596Z,1001.9
2023-10-23T10:33:28.836Z,1001.9
2023-10-23T10:34:45.065Z,1002
2023-10-23T10:36:01.318Z,1001.9
2023-10-23T10:37:17.545Z,1001.9
2023-10-23T10:38:33.790Z,1001.8
2023-10-23T10:39:50.035Z,1001.8
2023-10-23T10:41:06.261Z,1001.7
2023-10-23T10:42:21.527Z,1001.8
2023-10-23T10:43:37.762Z,1001.7
2023-10-23T10:44:54.002Z,1001.7
2023-10-23T10:46:10.244Z,1001.6
2023-10-23T10:47:26.486Z,1001.6
2023-10-23T10:48:42.721Z,1001.6
2023-10-23T10:49:58.960Z,1001.6
2023-10-23T10:51:15.195Z,1001.5
2023-10-23T10:52:31.447Z,1001.6
2023-10-23T10:53:47.692Z,1001.6
2023-10-23T10:55:03.925Z,1001.5
2023-10-23T10:56:20.167Z,1001.5
2023-10-23T10:57:36.394Z,1001.5
2023-10-23T10:58:51.664Z,1001.4
2023-10-23T11:00:07.900Z,1001.4
2023-10-23T11:01:24.136Z,1001.4
2023-10-23T11:02:40.378Z,1001.4
2023-10-23T11:03:56.608Z,1001.4
2023-10-23T11:05:12.848Z,1001.4
2023-10-23T11:06:29.080Z,1001.4
2023-10-23T11:07:45.337Z,1001.4
2023-10-23T11:09:01.567Z,1001.4
2023-10-23T11:10:17.803Z,1001.4
2023-10-23T11:11:34.034Z,1001.4
2023-10-23T11:12:50.274Z,1001.4
2023-10-23T11:14:06.521Z,1001.3
2023-10-23T11:15:21.776Z,1001.3
2023-10-23T11:16:38.020Z,1001.3
2023-10-23T11:17:54.257Z,1001.3
2023-10-23T11:19:10.493Z,1001.3
2023-10-23T11:20:26.732Z,1001.3
2023-10-23T11:21:42.970Z,1001.3
2023-10-23T11:22:59.202Z,1001.3
2023-10-23T11:24:15.445Z,1001.3
2023-10-23T11:25:31.687Z,1001.3
2023-10-23T11:26:47.922Z,1001.3
2023-10-23T11:28:04.157Z,1001.2
2023-10-23T11:29:20.416Z,1001.3
2023-10-23T11:30:36.645Z,1001.3
2023-10-23T11:31:51.904Z,1001.3
2023-10-23T11:33:08.137Z,1001.3
2023-10-23T11:34:24.377Z,1001.3
2023-10-23T11:35:40.614Z,1001.3
2023-10-23T11:36:56.856Z,1001.3
2023-10-23T11:38:13.084Z,1001.3
2023-10-23T11:39:28.370Z,1001.3
2023-10-23T11:40:44.595Z,1001.3
2023-10-23T11:42:00.832Z,1001.3
2023-10-23T11:43:17.061Z,1001.3
2023-10-23T11:44:33.311Z,1001.3
2023-10-23T11:45:49.549Z,1001.3
2023-10-23T11:47:05.794Z,1001.3
2023-10-23T11:48:22.032Z,1001.2
2023-10-23T11:49:38.271Z,1001.2
2023-10-23T11:50:54.513Z,1001.2
2023-10-23T11:52:10.750Z,1001.2
2023-10-23T11:53:26.972Z,1001.3
2023-10-23T11:54:43.215Z,1001.3
2023-10-23T11:55:58.478Z,1001.3
2023-10-23T11:57:14.719Z,1001.3
2023-10-23T11:58:30.953Z,1001.3
2023-10-23T11:59:47.188Z,1001.3
2023-10-23T12:01:03.430Z,1001.3
2023-10-23T12:02:19.662Z,1001.3
2023-10-23T12:03:35.902Z,1001.2
2023-10-23T12:04:52.141Z,1001.3
2023-10-23T12:06:08.390Z,1001.2
2023-10-23T12:07:24.637Z,1001.3
2023-10-23T12:08:40.863Z,1001.3
2023-10-23T12:09:57.104Z,1001.2
2023-10-23T12:11:13.348Z,1001.2
2023-10-23T12:12:28.603Z,1001.2
2023-10-23T12:13:44.842Z,1001.2
2023-10-23T12:15:01.076Z,1001.2
2023-10-23T12:16:17.331Z,1001.1
2023-10-23T12:17:33.559Z,1001.2
2023-10-23T12:18:49.789Z,1001.2
2023-10-23T12:20:06.038Z,1001.2
2023-10-23T12:21:22.271Z,1001.1
2023-10-23T12:22:38.511Z,1001.1
2023-10-23T12:23:54.742Z,1001.1
2023-10-23T12:25:10.990Z,1001.1
2023-10-23T12:26:27.237Z,1001.1
2023-10-23T12:27:43.474Z,1001.1
2023-10-23T12:28:58.723Z,1001.1
2023-10-23T12:30:14.961Z,1001.1
2023-10-23T12:31:31.204Z,1001.1
2023-10-23T12:32:47.432Z,1001.1
2023-10-23T12:34:03.691Z,1001.1
2023-10-23T12:35:19.919Z,1001
2023-10-23T12:36:36.158Z,1001
2023-10-23T12:37:52.396Z,1001
2023-10-23T12:39:08.643Z,1001
2023-10-23T12:40:24.888Z,1001
2023-10-23T12:41:41.123Z,1001
2023-10-23T12:42:57.360Z,1001
2023-10-23T12:44:13.603Z,1001
2023-10-23T12:45:28.839Z,1001
2023-10-23T12:46:45.086Z,1001
2023-10-23T12:48:01.335Z,1000.9
2023-10-23T12:49:17.559Z,1000.9
2023-10-23T12:50:33.802Z,1000.9
2023-10-23T12:51:50.034Z,1000.8
2023-10-23T12:53:06.269Z,1000.8
2023-10-23T12:54:22.521Z,1000.9
2023-10-23T12:55:38.759Z,1000.8
2023-10-23T12:56:54.992Z,1000.8
2023-10-23T12:58:11.230Z,1000.8
2023-10-23T12:59:27.470Z,1000.8
2023-10-23T13:00:43.722Z,1000.8
2023-10-23T13:01:58.961Z,1000.7
2023-10-23T13:03:15.211Z,1000.7
2023-10-23T13:04:31.435Z,1000.7
2023-10-23T13:05:47.693Z,1000.7
2023-10-23T13:07:03.923Z,1000.6
2023-10-23T13:08:20.163Z,1000.6
2023-10-23T13:09:36.412Z,1000.6
2023-10-23T13:10:52.657Z,1000.6
2023-10-23T13:12:08.892Z,1000.6
2023-10-23T13:13:25.117Z,1000.6
2023-10-23T13:14:41.343Z,1000.6
2023-10-23T13:15:57.589Z,1000.6
2023-10-23T13:17:13.841Z,1000.6
2023-10-23T13:18:29.078Z,1000.6
2023-10-23T13:19:45.325Z,1000.6
2023-10-23T13:21:01.561Z,1000.6
2023-10-23T13:22:17.812Z,1000.6
2023-10-23T13:23:34.041Z,1000.5
2023-10-23T13:24:50.282Z,1000.5
2023-10-23T13:26:06.509Z,1000.5
2023-10-23T13:27:22.747Z,1000.5
2023-10-23T13:28:38.999Z,1000.5
2023-10-23T13:29:55.241Z,1000.5
2023-10-23T13:31:11.465Z,1000.5
2023-10-23T13:32:27.713Z,1000.5
2023-10-23T13:33:43.949Z,1000.5
2023-10-23T13:34:59.201Z,1000.5
2023-10-23T13:36:15.445Z,1000.5
2023-10-23T13:37:31.694Z,1000.5
2023-10-23T13:38:47.938Z,1000.5
2023-10-23T13:40:04.170Z,1000.4
2023-10-23T13:41:20.406Z,1000.4
2023-10-23T13:42:36.634Z,1000.4
2023-10-23T13:43:52.880Z,1000.4
2023-10-23T13:45:09.118Z,1000.4
2023-10-23T13:46:25.354Z,1000.4
2023-10-23T13:47:41.613Z,1000.3
2023-10-23T13:48:57.840Z,1000.4
2023-10-23T13:50:14.077Z,1000.3
2023-10-23T13:51:29.323Z,1000.3
2023-10-23T13:52:45.567Z,1000.3
2023-10-23T13:54:01.795Z,1000.3
2023-10-23T13:55:18.041Z,1000.3
2023-10-23T13:56:34.278Z,1000.2
2023-10-23T13:57:50.516Z,1000.2
2023-10-23T13:59:06.770Z,1000.2
2023-10-23T14:00:23.004Z,1000.2
2023-10-23T14:01:39.259Z,1000.2
2023-10-23T14:02:55.484Z,1000.2
2023-10-23T14:04:11.725Z,1000.2
2023-10-23T14:05:27.951Z,1000.2
2023-10-23T14:06:44.199Z,1000.2
2023-10-23T14:07:59.443Z,1000.1
2023-10-23T14:09:15.696Z,1000.1
2023-10-23T14:10:31.920Z,1000.1
2023-10-23T14:11:48.157Z,1000.1
2023-10-23T14:13:04.416Z,1000.1
2023-10-23T14:14:20.658Z,1000
2023-10-23T14:15:36.887Z,1000.1
2023-10-23T14:16:53.142Z,1000
2023-10-23T14:18:09.358Z,1000
2023-10-23T14:19:25.596Z,1000
2023-10-23T14:20:41.826Z,1000
2023-10-23T14:21:58.079Z,1000
2023-10-23T14:23:14.310Z,1000
2023-10-23T14:24:29.561Z,1000
2023-10-23T14:25:45.820Z,1000.1
2023-10-23T14:27:02.070Z,1000
2023-10-23T14:28:18.000Z,1000
2023-10-23T14:29:34.535Z,1000
2023-10-23T14:30:50.776Z,999.9
2023-10-23T14:32:06.997Z,999.9
2023-10-23T14:33:23.251Z,999.9
2023-10-23T14:34:39.509Z,999.9
2023-10-23T14:35:55.726Z,999.9
2023-10-23T14:37:11.985Z,999.9
2023-10-23T14:38:28.196Z,999.9
2023-10-23T14:39:44.455Z,999.8
2023-10-23T14:40:59.708Z,999.8
2023-10-23T14:42:15.952Z,999.9
2023-10-23T14:43:32.180Z,999.9
2023-10-23T14:44:48.429Z,999.9
2023-10-23T14:46:04.668Z,999.9
2023-10-23T14:47:20.900Z,999.9
2023-10-23T14:48:37.165Z,999.8
2023-10-23T14:49:53.383Z,999.9
2023-10-23T14:51:09.612Z,999.8
2023-10-23T14:52:25.852Z,999.8
2023-10-23T14:53:42.107Z,999.8
2023-10-23T14:54:58.352Z,999.8
2023-10-23T14:56:14.591Z,999.8
2023-10-23T14:57:29.855Z,999.8
2023-10-23T14:58:46.066Z,999.8
2023-10-23T15:00:02.331Z,999.8
2023-10-23T15:01:18.568Z,999.7
2023-10-23T15:02:34.792Z,999.7
2023-10-23T15:03:51.043Z,999.8
2023-10-23T15:05:07.275Z,999.8
2023-10-23T15:06:23.504Z,999.7
2023-10-23T15:07:39.744Z,999.7
2023-10-23T15:08:56.014Z,999.6
2023-10-23T15:10:12.254Z,999.6
2023-10-23T15:11:28.485Z,999.6
2023-10-23T15:12:44.705Z,999.6
2023-10-23T15:13:59.996Z,999.6
2023-10-23T15:15:16.223Z,999.6
2023-10-23T15:16:32.464Z,999.6
2023-10-23T15:17:48.700Z,999.6
2023-10-23T15:19:04.922Z,999.6
2023-10-23T15:20:21.161Z,999.6
2023-10-23T15:21:37.434Z,999.6
2023-10-23T15:22:53.663Z,999.6
2023-10-23T15:24:09.900Z,999.6
2023-10-23T15:25:26.140Z,999.5
2023-10-23T15:26:42.374Z,999.5
2023-10-23T15:27:58.630Z,999.5
2023-10-23T15:29:14.863Z,999.5
2023-10-23T15:30:30.100Z,999.5
2023-10-23T15:31:46.371Z,999.5
2023-10-23T15:33:02.586Z,999.4
2023-10-23T15:34:18.828Z,999.4
2023-10-23T15:35:35.065Z,999.4
2023-10-23T15:36:51.337Z,999.4
2023-10-23T15:38:07.563Z,999.4
2023-10-23T15:39:23.814Z,999.4
2023-10-23T15:40:40.048Z,999.4
2023-10-23T15:41:56.292Z,999.4
2023-10-23T15:43:12.524Z,999.4
2023-10-23T15:44:28.760Z,999.4
2023-10-23T15:45:44.997Z,999.4
2023-10-23T15:47:00.269Z,999.4
2023-10-23T15:48:16.506Z,999.4
2023-10-23T15:49:32.749Z,999.4
2023-10-23T15:50:48.953Z,999.4
2023-10-23T15:52:05.200Z,999.4
2023-10-23T15:53:21.440Z,999.3
2023-10-23T15:54:36.708Z,999.4
2023-10-23T15:55:52.953Z,999.3
2023-10-23T15:57:09.199Z,999.3